Aérodrome :
LOGIN :

S'inscrire | Disclaimer

   EN    FR    IT 

 










Légende :    VFR   VFR Marginal   IFR   IFR Intensif   IFR Très Intensif
Visi : 
Plafond : 
>= 8 km
>= 3000ft
5 à 8 km
1000 à 3000 ft
1500m à 5 km
500 à 1000 ft
800 à 1500m
200 à 500 ft
< 800m
< 200 ft
Symboles :   Orages  Brouillard  Fortes neiges  Fortes précipitations  Vent > 20 kt
SIGMETs :   Divers  Orages  Givrage  Turbulence  Onde Orograph.  Cendres Volcan.






- Altitude de l'aérodrome : 280 ft
- Code IATA : FAE


EKVG - Vagar

DERNIER METAR :
  • 121620Z AUTO 18007KT 150V210 9999 BKN005/// 11/10 Q1017

METARs EXPIRÉS :
  • 121550Z AUTO 20007KT 9999 BKN005/// BKN012/// 11/10 Q1018
  • 121520Z AUTO 22008KT 9999 BKN006/// 11/10 Q1018
  • 121450Z AUTO 24009KT 9999 BKN002/// 11/10 Q1018
  • 121420Z AUTO 23009KT 2800 BR BKN005/// 10/10 Q1018
  • 121350Z AUTO 23010KT 2400 BR BKN002/// 11/10 Q1018

TAF TAF EKVG
Valide du 12 à 15h jusqu'au 12 à 21h UTC


121420Z 1215/1221 24007KT 5000 BR BKN005
TEMPO 1215/1218 1500 DZ BR VV002
BECMG 1218/1220 14010KT



MET'MAP, la Météo Aéronautique d'un coup d'oeil ! - Copyright ORBIFLY Décembre 2007 - Disclaimer

ORBIFLY MET'MAP TEAM :

Programmation & Développement : Alexandra Zaïnal
Sur une idée originale de : Baudouin d'Aumeries
Assistance à la programmation : Marc-Olivier Méhu
Soutien technique & logistique : Manuel Goepfert

Contact : metmap@orbifly.com




SOURCES & CREDITS :

   NOAA